createdAt,value
2019-02-07T00:04:05.046Z,98713.70
2019-02-07T00:06:15.964Z,98711.95
2019-02-07T00:08:26.768Z,98718.28
2019-02-07T00:10:37.576Z,98713.55
2019-02-07T00:12:48.512Z,98708.38
2019-02-07T00:14:59.510Z,98700.67
2019-02-07T00:17:10.320Z,98698.11
2019-02-07T00:19:21.240Z,98701.89
2019-02-07T00:21:32.062Z,98707.84
2019-02-07T00:23:42.969Z,98703.56
2019-02-07T00:25:53.785Z,98696.27
2019-02-07T00:28:04.593Z,98691.51
2019-02-07T00:30:35.265Z,98683.06
2019-02-07T00:32:46.217Z,98682.67
2019-02-07T00:34:57.124Z,98676.77
2019-02-07T00:37:07.951Z,98680.14
2019-02-07T00:39:18.758Z,98680.14
2019-02-07T00:41:29.569Z,98681.51
2019-02-07T00:43:40.726Z,98681.94
2019-02-07T00:45:53.567Z,98685.38
2019-02-07T00:48:04.404Z,98679.04
2019-02-07T00:50:56.838Z,98680.72
2019-02-07T00:53:07.677Z,98679.09
2019-02-07T00:56:00.117Z,98683.28
2019-02-07T00:58:10.934Z,98679.39
2019-02-07T01:00:43.488Z,98678.12
2019-02-07T01:02:54.381Z,98673.92
2019-02-07T01:05:46.854Z,98681.16
2019-02-07T01:07:57.672Z,98672.62
2019-02-07T01:10:50.107Z,98672.13
2019-02-07T01:13:01.024Z,98672.98
2019-02-07T01:15:53.477Z,98676.43
2019-02-07T01:18:04.592Z,98673.84
2019-02-07T01:20:57.041Z,98676.45
2019-02-07T01:23:07.856Z,98678.16
2019-02-07T01:26:00.323Z,98668.02
2019-02-07T01:28:11.240Z,98668.06
2019-02-07T01:31:03.706Z,98667.31
2019-02-07T01:33:14.499Z,98669.49
2019-02-07T01:35:25.417Z,98662.73
2019-02-07T01:37:38.241Z,98664.44
2019-02-07T01:39:49.154Z,98655.50
2019-02-07T01:42:00.656Z,98654.66
2019-02-07T01:44:11.481Z,98657.23
2019-02-07T01:46:22.302Z,98660.23
2019-02-07T01:48:33.105Z,98653.50
2019-02-07T01:50:44.051Z,98652.73
2019-02-07T01:52:54.942Z,98651.91
2019-02-07T01:55:06.049Z,98655.33
2019-02-07T01:57:16.957Z,98653.17
2019-02-07T01:59:28.042Z,98643.81
2019-02-07T02:01:38.873Z,98638.21
2019-02-07T02:03:49.684Z,98636.09
2019-02-07T02:06:00.520Z,98636.98
2019-02-07T02:08:11.399Z,98637.05
2019-02-07T02:10:43.979Z,98632.02
2019-02-07T02:12:54.882Z,98627.78
2019-02-07T02:15:47.366Z,98624.47
2019-02-07T02:17:58.175Z,98630.86
2019-02-07T02:20:51.004Z,98613.47
2019-02-07T02:23:01.925Z,98614.33
2019-02-07T02:27:45.294Z,98607.89
2019-02-07T02:29:56.203Z,98604.93
2019-02-07T02:32:26.891Z,98604.13
2019-02-07T02:34:37.697Z,98604.13
2019-02-07T02:36:48.558Z,98595.16
2019-02-07T02:38:59.312Z,98589.16
2019-02-07T02:41:10.108Z,98584.86
2019-02-07T02:43:21.010Z,98580.11
2019-02-07T02:45:37.710Z,98577.53
2019-02-07T02:47:44.842Z,98578.80
2019-02-07T02:49:55.640Z,98587.25
2019-02-07T02:52:06.553Z,98586.78
2019-02-07T02:54:37.222Z,98582.52
2019-02-07T02:56:48.030Z,98579.98
2019-02-07T02:58:58.870Z,98576.16
2019-02-07T03:08:43.246Z,98564.69
2019-02-07T03:11:13.925Z,98565.92
2019-02-07T03:13:44.732Z,98563.84
2019-02-07T03:18:48.014Z,98551.94
2019-02-07T03:21:19.100Z,98551.96
2019-02-07T03:23:49.816Z,98548.62
2019-02-07T03:29:12.786Z,98546.05
2019-02-07T03:31:43.447Z,98542.64
2019-02-07T03:34:16.527Z,98540.53
2019-02-07T03:37:21.867Z,98540.03
2019-02-07T03:39:41.747Z,98524.77
2019-02-07T03:42:12.420Z,98526.17
2019-02-07T03:44:43.123Z,98518.07
2019-02-07T03:50:06.087Z,98514.22
2019-02-07T03:55:09.169Z,98515.50
2019-02-07T03:57:39.843Z,98515.41
2019-02-07T04:02:29.228Z,98507.81
2019-02-07T04:04:59.924Z,98503.10
2019-02-07T04:07:30.600Z,98495.05
2019-02-07T04:10:01.296Z,98499.33
2019-02-07T04:17:36.827Z,98504.52
2019-02-07T04:20:07.496Z,98506.24
2019-02-07T04:22:38.206Z,98508.01
2019-02-07T04:27:41.364Z,98512.28
2019-02-07T04:30:12.327Z,98508.83
2019-02-07T04:35:05.127Z,98503.84
2019-02-07T04:39:58.020Z,98500.88
2019-02-07T04:44:47.731Z,98486.29
2019-02-07T04:47:18.454Z,98490.22
2019-02-07T04:49:49.130Z,98492.83
2019-02-07T04:52:19.836Z,98475.84
2019-02-07T04:54:50.531Z,98481.34
2019-02-07T04:57:21.430Z,98479.27
2019-02-07T04:59:52.171Z,98459.28
2019-02-07T05:02:44.633Z,98462.72
2019-02-07T05:05:15.353Z,98466.92
2019-02-07T05:07:46.162Z,98463.45
2019-02-07T05:12:49.542Z,98473.98
2019-02-07T05:15:20.223Z,98472.25
2019-02-07T05:17:50.934Z,98468.34
2019-02-07T05:20:43.381Z,98464.47
2019-02-07T05:25:36.582Z,98460.11
2019-02-07T05:28:07.269Z,98462.25
2019-02-07T05:30:37.950Z,98462.63
2019-02-07T05:35:40.994Z,98467.73
2019-02-07T05:38:11.787Z,98455.06
2019-02-07T05:40:42.502Z,98446.47
2019-02-07T05:43:13.215Z,98440.91
2019-02-07T05:45:43.910Z,98444.77
2019-02-07T05:48:15.010Z,98450.29
2019-02-07T05:50:45.729Z,98446.98
2019-02-07T05:53:16.419Z,98447.85
2019-02-07T05:55:47.121Z,98456.77
2019-02-07T05:58:17.806Z,98446.11
2019-02-07T06:03:07.310Z,98443.51
2019-02-07T06:05:38.002Z,98445.69
2019-02-07T06:08:08.697Z,98450.40
2019-02-07T06:10:39.454Z,98457.18
2019-02-07T06:13:10.131Z,98449.06
2019-02-07T06:15:40.936Z,98455.84
2019-02-07T06:20:44.108Z,98452.84
2019-02-07T06:23:14.799Z,98445.22
2019-02-07T06:28:17.872Z,98449.40
2019-02-07T06:30:48.767Z,98446.01
2019-02-07T06:33:19.550Z,98443.89
2019-02-07T06:35:50.233Z,98432.39
2019-02-07T06:38:20.937Z,98438.50
2019-02-07T06:40:51.625Z,98443.16
2019-02-07T06:43:22.714Z,98441.83
2019-02-07T06:45:53.395Z,98440.53
2019-02-07T06:48:24.231Z,98438.77
2019-02-07T06:50:54.911Z,98425.23
2019-02-07T06:55:44.410Z,98419.44
2019-02-07T07:00:37.486Z,98406.36
2019-02-07T07:05:48.715Z,98423.74
2019-02-07T07:08:19.515Z,98418.38
2019-02-07T07:10:50.202Z,98420.64
2019-02-07T07:13:20.896Z,98414.30
2019-02-07T07:15:51.566Z,98402.02
2019-02-07T07:18:22.358Z,98404.53
2019-02-07T07:20:53.044Z,98400.27
2019-02-07T07:23:23.853Z,98399.75
2019-02-07T07:25:54.568Z,98402.70
2019-02-07T07:28:25.267Z,98402.38
2019-02-07T07:30:55.947Z,98413.35
2019-02-07T07:33:26.631Z,98406.46
2019-02-07T07:35:57.317Z,98398.22
2019-02-07T07:41:00.467Z,98393.58
2019-02-07T07:43:31.218Z,98397.41
2019-02-07T07:48:34.385Z,98384.13
2019-02-07T07:51:05.148Z,98380.30
2019-02-07T07:53:35.912Z,98378.86
2019-02-07T07:56:06.625Z,98379.27
2019-02-07T07:58:37.292Z,98378.83
2019-02-07T08:01:08.051Z,98375.92
2019-02-07T08:06:11.402Z,98378.42
2019-02-07T08:08:42.073Z,98371.83
2019-02-07T08:11:12.757Z,98372.49
2019-02-07T08:13:43.430Z,98360.02
2019-02-07T08:16:14.476Z,98359.80
2019-02-07T08:21:17.630Z,98347.63
2019-02-07T08:26:20.672Z,98342.41
2019-02-07T08:28:51.642Z,98337.56
2019-02-07T08:31:44.108Z,98347.25
2019-02-07T08:34:14.810Z,98346.42
2019-02-07T08:36:45.498Z,98345.73
2019-02-07T08:39:16.191Z,98350.03
2019-02-07T08:41:46.894Z,98353.25
2019-02-07T08:46:50.043Z,98356.03
2019-02-07T08:49:20.919Z,98348.14
2019-02-07T08:51:51.600Z,98349.23
2019-02-07T08:54:22.385Z,98351.00
2019-02-07T08:56:53.064Z,98348.14
2019-02-07T08:59:23.747Z,98350.38
2019-02-07T09:02:16.189Z,98343.79
2019-02-07T09:04:46.996Z,98344.49
2019-02-07T09:07:18.281Z,98343.59
2019-02-07T09:16:48.935Z,98330.06
2019-02-07T09:19:19.916Z,98322.61
2019-02-07T09:21:50.602Z,98321.03
2019-02-07T09:26:40.206Z,98314.12
2019-02-07T09:29:10.900Z,98313.91
2019-02-07T09:31:41.587Z,98323.42
2019-02-07T09:34:12.665Z,98316.82
2019-02-07T09:36:43.341Z,98310.57
2019-02-07T09:39:14.147Z,98314.28
2019-02-07T09:41:44.821Z,98308.98
2019-02-07T09:44:15.523Z,98305.88
2019-02-07T09:46:46.195Z,98301.55
2019-02-07T09:49:16.948Z,98294.91
2019-02-07T09:51:47.750Z,98296.88
2019-02-07T09:54:18.466Z,98295.27
2019-02-07T09:56:49.140Z,98295.35
2019-02-07T09:59:19.819Z,98295.33
2019-02-07T10:04:09.610Z,98296.10
2019-02-07T10:06:40.418Z,98293.44
2019-02-07T10:09:11.089Z,98297.20
2019-02-07T10:11:41.775Z,98298.02
2019-02-07T10:14:12.571Z,98298.70
2019-02-07T10:21:20.917Z,98300.99
2019-02-07T10:23:51.588Z,98298.90
2019-02-07T10:26:44.075Z,98296.13
2019-02-07T10:29:14.788Z,98297.86
2019-02-07T10:31:45.450Z,98295.23
2019-02-07T10:34:18.721Z,98292.21
2019-02-07T10:36:48.728Z,98293.86
2019-02-07T10:44:18.093Z,98282.95
2019-02-07T10:46:48.792Z,98282.56
2019-02-07T10:51:41.821Z,98286.84
2019-02-07T10:54:12.547Z,98277.27
2019-02-07T10:57:05.026Z,98283.02
2019-02-07T10:59:35.814Z,98283.59
2019-02-07T11:02:06.587Z,98276.21
2019-02-07T11:04:37.284Z,98286.18
2019-02-07T11:07:08.094Z,98277.95
2019-02-07T11:09:38.894Z,98275.53
2019-02-07T11:12:09.661Z,98277.30
2019-02-07T11:14:41.060Z,98274.64
2019-02-07T11:17:11.741Z,98270.41
2019-02-07T11:20:04.220Z,98269.29
2019-02-07T11:22:34.890Z,98265.80
2019-02-07T11:25:05.684Z,98264.97
2019-02-07T11:27:36.383Z,98263.54
2019-02-07T11:32:26.645Z,98251.40
2019-02-07T11:39:48.775Z,98234.06
2019-02-07T11:42:19.460Z,98231.38
2019-02-07T11:44:50.747Z,98236.87
2019-02-07T11:52:26.706Z,98227.16
2019-02-07T11:54:57.396Z,98224.00
2019-02-07T11:57:28.129Z,98222.91
2019-02-07T11:59:59.090Z,98223.27
2019-02-07T12:02:30.084Z,98211.63
2019-02-07T12:05:00.876Z,98219.36
2019-02-07T12:07:31.566Z,98218.17
2019-02-07T12:10:02.255Z,98214.90
2019-02-07T12:12:33.359Z,98214.32
2019-02-07T12:15:25.821Z,98220.93
2019-02-07T12:18:18.282Z,98224.72
2019-02-07T12:20:48.952Z,98238.20
2019-02-07T12:25:42.414Z,98236.16
2019-02-07T12:28:13.108Z,98239.11
2019-02-07T12:30:43.886Z,98239.05
2019-02-07T12:33:14.896Z,98237.31
2019-02-07T12:35:45.712Z,98225.99
2019-02-07T12:40:38.546Z,98212.70
2019-02-07T12:43:31.004Z,98222.75
2019-02-07T12:48:34.086Z,98223.20
2019-02-07T12:51:04.765Z,98223.38
2019-02-07T12:53:35.457Z,98218.50
2019-02-07T12:58:38.936Z,98211.69
2019-02-07T13:01:09.621Z,98215.03
2019-02-07T13:05:59.271Z,98210.50
2019-02-07T13:10:52.160Z,98214.26
2019-02-07T13:13:44.632Z,98213.80
2019-02-07T13:16:15.379Z,98215.47
2019-02-07T13:18:46.075Z,98216.27
2019-02-07T13:21:16.982Z,98206.19
2019-02-07T13:23:47.651Z,98202.55
2019-02-07T13:26:18.440Z,98203.97
2019-02-07T13:28:49.111Z,98196.55
2019-02-07T13:31:19.926Z,98194.59
2019-02-07T13:36:44.775Z,98195.09
2019-02-07T13:39:15.441Z,98193.16
2019-02-07T13:44:04.579Z,98190.20
2019-02-07T13:48:54.354Z,98184.11
2019-02-07T13:51:25.178Z,98186.45
2019-02-07T13:56:28.309Z,98201.19
2019-02-07T14:03:50.081Z,98203.61
2019-02-07T14:08:53.143Z,98200.28
2019-02-07T14:11:23.863Z,98202.41
2019-02-07T14:13:54.556Z,98208.06
2019-02-07T14:16:25.689Z,98205.55
2019-02-07T14:18:56.413Z,98200.41
2019-02-07T14:21:27.153Z,98205.44
2019-02-07T14:23:57.876Z,98206.34
2019-02-07T14:31:19.569Z,98207.56
2019-02-07T14:33:50.375Z,98213.19
2019-02-07T14:36:21.038Z,98214.98
2019-02-07T14:38:51.731Z,98221.77
2019-02-07T14:44:14.833Z,98223.52
2019-02-07T14:46:45.518Z,98230.72
2019-02-07T14:48:56.373Z,98228.92
2019-02-07T14:51:07.173Z,98222.86
2019-02-07T14:53:18.108Z,98223.23
2019-02-07T14:55:28.939Z,98227.05
2019-02-07T14:57:39.741Z,98223.64
2019-02-07T14:59:51.373Z,98222.48
2019-02-07T15:02:03.356Z,98224.34
2019-02-07T15:04:16.212Z,98230.72
2019-02-07T15:06:27.216Z,98230.80
2019-02-07T15:08:38.028Z,98238.45
2019-02-07T15:10:48.875Z,98244.52
2019-02-07T15:13:01.366Z,98243.35
2019-02-07T15:15:54.203Z,98244.27
2019-02-07T15:18:05.627Z,98251.20
2019-02-07T15:20:25.728Z,98254.32
2019-02-07T15:22:29.373Z,98255.98
2019-02-07T15:24:40.317Z,98263.34
2019-02-07T15:26:51.125Z,98270.67
2019-02-07T15:29:01.934Z,98275.94
2019-02-07T15:31:12.757Z,98271.70
2019-02-07T15:33:23.576Z,98286.33
2019-02-07T15:36:16.039Z,98285.05
2019-02-07T15:38:26.938Z,98293.23
2019-02-07T15:40:38.086Z,98294.14
2019-02-07T15:42:48.997Z,98305.03
2019-02-07T15:45:41.483Z,98299.27
2019-02-07T15:47:52.442Z,98302.84
2019-02-07T15:50:25.060Z,98302.84
2019-02-07T15:52:37.781Z,98294.84
2019-02-07T15:54:48.614Z,98287.53
2019-02-07T15:56:59.549Z,98287.53
2019-02-07T15:59:52.005Z,98297.80
2019-02-07T16:02:44.489Z,98290.91
2019-02-07T16:07:27.659Z,98284.43
2019-02-07T16:09:38.463Z,98292.16
2019-02-07T16:11:51.827Z,98296.30
2019-02-07T16:14:43.649Z,98291.83
2019-02-07T16:16:54.499Z,98300.75
2019-02-07T16:19:05.408Z,98301.29
2019-02-07T16:21:18.129Z,98300.27
2019-02-07T16:23:29.060Z,98302.23
2019-02-07T16:25:39.983Z,98299.05
2019-02-07T16:27:50.906Z,98301.37
2019-02-07T16:33:00.590Z,98304.47
2019-02-07T16:35:31.268Z,98310.64
2019-02-07T16:39:59.289Z,98308.47
2019-02-07T16:42:10.090Z,98306.88
2019-02-07T16:44:42.683Z,98304.21
2019-02-07T16:46:54.527Z,98305.61
2019-02-07T16:49:06.264Z,98304.50
2019-02-07T16:51:17.169Z,98305.06
2019-02-07T16:53:28.171Z,98317.20
2019-02-07T16:55:38.979Z,98316.02
2019-02-07T16:58:31.514Z,98318.70
2019-02-07T17:00:42.436Z,98317.63
2019-02-07T17:03:35.008Z,98314.15
2019-02-07T17:05:45.941Z,98317.83
2019-02-07T17:07:56.831Z,98312.47
2019-02-07T17:10:49.302Z,98304.76
2019-02-07T17:13:00.521Z,98305.69
2019-02-07T17:15:52.982Z,98311.14
2019-02-07T17:18:03.999Z,98314.78
2019-02-07T17:20:34.695Z,98330.52
2019-02-07T17:22:47.484Z,98330.33
2019-02-07T17:24:58.355Z,98333.13
2019-02-07T17:27:09.179Z,98329.36
2019-02-07T17:29:40.084Z,98339.74
2019-02-07T17:31:50.988Z,98339.74
2019-02-07T17:34:01.921Z,98344.78
2019-02-07T17:36:12.930Z,98346.52
2019-02-07T17:38:23.736Z,98358.03
2019-02-07T17:43:15.709Z,98371.72
2019-02-07T17:45:46.464Z,98375.64
2019-02-07T17:47:57.329Z,98381.17
2019-02-07T17:50:47.901Z,98383.35
2019-02-07T17:53:20.472Z,98379.88
2019-02-07T17:55:31.704Z,98389.62
2019-02-07T17:57:42.635Z,98390.81
2019-02-07T17:59:53.466Z,98396.41
2019-02-07T18:02:06.162Z,98393.33
2019-02-07T18:04:16.993Z,98392.84
2019-02-07T18:06:27.945Z,98392.75
2019-02-07T18:08:38.872Z,98397.80
2019-02-07T18:10:49.920Z,98396.54
2019-02-07T18:13:00.774Z,98400.17
2019-02-07T18:15:11.771Z,98407.88
2019-02-07T18:17:22.942Z,98408.43
2019-02-07T18:19:33.770Z,98410.19
2019-02-07T18:21:44.626Z,98411.12
2019-02-07T18:23:55.569Z,98411.12
2019-02-07T18:26:06.493Z,98418.45
2019-02-07T18:28:17.385Z,98419.67
2019-02-07T18:30:28.236Z,98423.86
2019-02-07T18:32:39.170Z,98420.41
2019-02-07T18:34:50.013Z,98433.33
2019-02-07T18:37:01.271Z,98434.38
2019-02-07T18:39:12.074Z,98431.35
2019-02-07T18:41:22.910Z,98436.17
2019-02-07T18:43:33.913Z,98447.30
2019-02-07T18:45:44.723Z,98448.61
2019-02-07T18:47:58.893Z,98450.53
2019-02-07T18:50:13.337Z,98462.34
2019-02-07T18:52:24.215Z,98470.26
2019-02-07T18:54:35.115Z,98477.22
2019-02-07T18:56:45.948Z,98481.10
2019-02-07T18:58:56.772Z,98484.57
2019-02-07T19:01:07.886Z,98492.75
2019-02-07T19:03:18.750Z,98495.83
2019-02-07T19:05:29.676Z,98488.06
2019-02-07T19:07:40.530Z,98497.51
2019-02-07T19:09:51.347Z,98497.12
2019-02-07T19:12:02.355Z,98498.84
2019-02-07T19:14:13.375Z,98499.77
2019-02-07T19:16:24.302Z,98504.52
2019-02-07T19:18:35.148Z,98511.81
2019-02-07T19:20:46.425Z,98519.50
2019-02-07T19:22:57.225Z,98524.22
2019-02-07T19:25:09.473Z,98527.31
2019-02-07T19:27:20.319Z,98531.90
2019-02-07T19:29:31.143Z,98533.48
2019-02-07T19:31:41.994Z,98536.52
2019-02-07T19:33:52.809Z,98536.52
2019-02-07T19:36:03.786Z,98537.05
2019-02-07T19:38:14.607Z,98536.34
2019-02-07T19:40:25.563Z,98533.45
2019-02-07T19:42:36.988Z,98536.91
2019-02-07T19:44:47.844Z,98535.70
2019-02-07T19:46:58.736Z,98535.78
2019-02-07T19:49:09.743Z,98538.95
2019-02-07T19:51:20.588Z,98546.80
2019-02-07T19:53:31.393Z,98548.97
2019-02-07T19:55:42.246Z,98545.56
2019-02-07T19:57:53.057Z,98548.13
2019-02-07T20:00:07.733Z,98543.84
2019-02-07T20:02:18.556Z,98551.14
2019-02-07T20:04:29.902Z,98545.58
2019-02-07T20:06:41.558Z,98543.91
2019-02-07T20:08:52.672Z,98547.37
2019-02-07T20:11:03.787Z,98541.47
2019-02-07T20:13:14.741Z,98546.20
2019-02-07T20:15:31.812Z,98544.94
2019-02-07T20:17:42.620Z,98548.34
2019-02-07T20:19:53.440Z,98553.92
2019-02-07T20:22:04.378Z,98557.90
2019-02-07T20:24:15.505Z,98556.63
2019-02-07T20:26:26.366Z,98562.70
2019-02-07T20:28:37.396Z,98564.38
2019-02-07T20:33:00.138Z,98562.21
2019-02-07T20:35:11.153Z,98561.77
2019-02-07T20:37:22.037Z,98560.93
2019-02-07T20:39:32.852Z,98555.47
2019-02-07T20:41:43.738Z,98560.61
2019-02-07T20:43:55.068Z,98564.97
2019-02-07T20:46:05.872Z,98561.10
2019-02-07T20:48:16.744Z,98559.77
2019-02-07T20:50:27.762Z,98564.83
2019-02-07T20:52:38.579Z,98570.55
2019-02-07T20:54:49.531Z,98576.14
2019-02-07T20:57:00.368Z,98572.22
2019-02-07T20:59:11.275Z,98578.69
2019-02-07T21:01:22.103Z,98583.30
2019-02-07T21:03:33.441Z,98585.29
2019-02-07T21:05:44.281Z,98579.57
2019-02-07T21:07:55.441Z,98584.60
2019-02-07T21:10:12.544Z,98588.38
2019-02-07T21:12:23.359Z,98588.29
2019-02-07T21:14:34.224Z,98585.16
2019-02-07T21:16:45.025Z,98588.94
2019-02-07T21:18:55.857Z,98587.65
2019-02-07T21:21:06.667Z,98591.13
2019-02-07T21:23:17.515Z,98597.08
2019-02-07T21:25:40.997Z,98603.00
2019-02-07T21:27:52.302Z,98596.06
2019-02-07T21:30:09.945Z,98600.29
2019-02-07T21:32:20.763Z,98599.40
2019-02-07T21:34:31.572Z,98604.52
2019-02-07T21:36:42.386Z,98607.48
2019-02-07T21:38:53.350Z,98616.98
2019-02-07T21:41:04.326Z,98621.28
2019-02-07T21:43:15.132Z,98622.12
2019-02-07T21:45:26.080Z,98623.45
2019-02-07T21:47:37.289Z,98633.37
2019-02-07T21:49:48.165Z,98637.27
2019-02-07T21:51:58.970Z,98646.39
2019-02-07T21:54:09.802Z,98643.38
2019-02-07T21:56:20.679Z,98641.38
2019-02-07T21:58:31.436Z,98643.94
2019-02-07T22:00:44.359Z,98647.84
2019-02-07T22:02:55.270Z,98647.02
2019-02-07T22:05:06.186Z,98650.43
2019-02-07T22:07:17.053Z,98658.13
2019-02-07T22:09:28.302Z,98661.91
2019-02-07T22:11:39.126Z,98664.41
2019-02-07T22:13:50.032Z,98663.66
2019-02-07T22:16:01.131Z,98665.72
2019-02-07T22:18:11.980Z,98675.06
2019-02-07T22:20:24.704Z,98676.22
2019-02-07T22:22:35.508Z,98675.73
2019-02-07T22:24:46.306Z,98678.67
2019-02-07T22:26:57.125Z,98684.70
2019-02-07T22:29:07.955Z,98685.94
2019-02-07T22:31:19.096Z,98687.64
2019-02-07T22:33:29.936Z,98698.30
2019-02-07T22:35:40.833Z,98697.91
2019-02-07T22:37:51.670Z,98705.13
2019-02-07T22:40:06.385Z,98695.73
2019-02-07T22:42:17.197Z,98694.41
2019-02-07T22:44:28.006Z,98696.06
2019-02-07T22:46:38.806Z,98698.17
2019-02-07T22:48:49.657Z,98692.98
2019-02-07T22:51:00.485Z,98697.16
2019-02-07T22:53:11.725Z,98693.63
2019-02-07T22:55:22.823Z,98697.93
2019-02-07T22:57:33.642Z,98700.13
2019-02-07T22:59:44.472Z,98700.03
2019-02-07T23:01:55.940Z,98706.39
2019-02-07T23:04:06.847Z,98700.36
2019-02-07T23:06:17.745Z,98704.14
2019-02-07T23:08:28.635Z,98705.36
2019-02-07T23:10:39.579Z,98706.14
2019-02-07T23:12:50.448Z,98705.70
2019-02-07T23:15:01.950Z,98709.11
2019-02-07T23:17:12.783Z,98706.47
2019-02-07T23:19:23.700Z,98713.71
2019-02-07T23:21:34.491Z,98704.20
2019-02-07T23:23:45.324Z,98710.50
2019-02-07T23:25:56.155Z,98713.07
2019-02-07T23:28:07.482Z,98719.03
2019-02-07T23:30:18.687Z,98711.25
2019-02-07T23:32:29.596Z,98709.02
2019-02-07T23:34:40.424Z,98710.12
2019-02-07T23:36:53.127Z,98712.65
2019-02-07T23:39:05.077Z,98712.20
2019-02-07T23:41:15.993Z,98705.18
2019-02-07T23:43:27.072Z,98711.55
2019-02-07T23:45:44.171Z,98711.92
2019-02-07T23:47:55.332Z,98714.86
2019-02-07T23:50:08.393Z,98712.66
2019-02-07T23:52:19.206Z,98714.73
2019-02-07T23:54:30.044Z,98714.28
2019-02-07T23:56:40.830Z,98714.27
2019-02-07T23:58:52.045Z,98714.19
